sensor_id;sensor_type;location;lat;lon;timestamp;P1;durP1;ratioP1;P2;durP2;ratioP2
48835;SDS011;62581;47.342;7.908;2023-12-04T00:01:22;66.13;;;24.35;;
48835;SDS011;62581;47.342;7.908;2023-12-04T00:03:51;65.50;;;24.95;;
48835;SDS011;62581;47.342;7.908;2023-12-04T00:06:19;67.30;;;24.67;;
48835;SDS011;62581;47.342;7.908;2023-12-04T00:08:47;61.55;;;23.05;;
48835;SDS011;62581;47.342;7.908;2023-12-04T00:11:15;59.88;;;24.88;;
48835;SDS011;62581;47.342;7.908;2023-12-04T00:13:42;65.15;;;23.45;;
48835;SDS011;62581;47.342;7.908;2023-12-04T00:16:09;67.72;;;24.52;;
48835;SDS011;62581;47.342;7.908;2023-12-04T00:18:36;66.32;;;23.63;;
48835;SDS011;62581;47.342;7.908;2023-12-04T00:21:05;63.25;;;23.75;;
48835;SDS011;62581;47.342;7.908;2023-12-04T00:23:33;60.13;;;22.77;;
48835;SDS011;62581;47.342;7.908;2023-12-04T00:25:59;58.60;;;23.02;;
48835;SDS011;62581;47.342;7.908;2023-12-04T00:28:27;60.22;;;21.52;;
48835;SDS011;62581;47.342;7.908;2023-12-04T00:30:54;62.95;;;22.17;;
48835;SDS011;62581;47.342;7.908;2023-12-04T00:33:21;61.05;;;23.13;;
48835;SDS011;62581;47.342;7.908;2023-12-04T00:35:48;63.15;;;23.00;;
48835;SDS011;62581;47.342;7.908;2023-12-04T00:38:16;49.70;;;21.58;;
48835;SDS011;62581;47.342;7.908;2023-12-04T00:40:43;55.83;;;22.00;;
48835;SDS011;62581;47.342;7.908;2023-12-04T00:43:10;66.68;;;23.00;;
48835;SDS011;62581;47.342;7.908;2023-12-04T00:45:37;58.25;;;22.42;;
48835;SDS011;62581;47.342;7.908;2023-12-04T00:48:05;62.42;;;23.27;;
48835;SDS011;62581;47.342;7.908;2023-12-04T00:50:32;64.90;;;23.25;;
48835;SDS011;62581;47.342;7.908;2023-12-04T00:52:59;59.58;;;22.02;;
48835;SDS011;62581;47.342;7.908;2023-12-04T00:55:27;63.47;;;22.73;;
48835;SDS011;62581;47.342;7.908;2023-12-04T00:57:54;64.28;;;22.73;;
48835;SDS011;62581;47.342;7.908;2023-12-04T01:00:21;63.83;;;23.67;;
48835;SDS011;62581;47.342;7.908;2023-12-04T01:02:48;59.60;;;22.48;;
48835;SDS011;62581;47.342;7.908;2023-12-04T01:05:15;64.88;;;23.77;;
48835;SDS011;62581;47.342;7.908;2023-12-04T01:07:42;59.72;;;22.70;;
48835;SDS011;62581;47.342;7.908;2023-12-04T01:10:09;59.25;;;22.10;;
48835;SDS011;62581;47.342;7.908;2023-12-04T01:12:37;56.65;;;21.52;;
48835;SDS011;62581;47.342;7.908;2023-12-04T01:15:05;57.88;;;23.00;;
48835;SDS011;62581;47.342;7.908;2023-12-04T01:17:32;54.72;;;22.05;;
48835;SDS011;62581;47.342;7.908;2023-12-04T01:19:59;52.25;;;22.50;;
48835;SDS011;62581;47.342;7.908;2023-12-04T01:22:26;54.17;;;20.85;;
48835;SDS011;62581;47.342;7.908;2023-12-04T01:24:53;51.13;;;21.23;;
48835;SDS011;62581;47.342;7.908;2023-12-04T01:27:20;50.08;;;21.15;;
48835;SDS011;62581;47.342;7.908;2023-12-04T01:29:48;54.80;;;20.92;;
48835;SDS011;62581;47.342;7.908;2023-12-04T01:32:15;55.67;;;22.15;;
48835;SDS011;62581;47.342;7.908;2023-12-04T01:34:42;51.10;;;21.90;;
48835;SDS011;62581;47.342;7.908;2023-12-04T01:37:09;51.95;;;20.73;;
48835;SDS011;62581;47.342;7.908;2023-12-04T01:39:36;54.20;;;21.58;;
48835;SDS011;62581;47.342;7.908;2023-12-04T01:42:03;53.08;;;21.42;;
48835;SDS011;62581;47.342;7.908;2023-12-04T01:44:30;49.70;;;20.38;;
48835;SDS011;62581;47.342;7.908;2023-12-04T01:46:59;51.33;;;21.42;;
48835;SDS011;62581;47.342;7.908;2023-12-04T01:49:26;51.17;;;22.15;;
48835;SDS011;62581;47.342;7.908;2023-12-04T01:51:53;46.72;;;20.27;;
48835;SDS011;62581;47.342;7.908;2023-12-04T01:54:20;50.72;;;20.88;;
48835;SDS011;62581;47.342;7.908;2023-12-04T01:56:48;45.30;;;19.43;;
48835;SDS011;62581;47.342;7.908;2023-12-04T01:59:15;54.83;;;20.20;;
48835;SDS011;62581;47.342;7.908;2023-12-04T02:01:42;48.20;;;18.85;;
48835;SDS011;62581;47.342;7.908;2023-12-04T02:04:11;50.88;;;21.20;;
48835;SDS011;62581;47.342;7.908;2023-12-04T02:09:06;54.53;;;20.13;;
48835;SDS011;62581;47.342;7.908;2023-12-04T02:11:37;52.30;;;21.60;;
48835;SDS011;62581;47.342;7.908;2023-12-04T02:14:04;50.90;;;20.58;;
48835;SDS011;62581;47.342;7.908;2023-12-04T02:16:32;50.13;;;21.65;;
48835;SDS011;62581;47.342;7.908;2023-12-04T02:19:08;51.38;;;20.52;;
48835;SDS011;62581;47.342;7.908;2023-12-04T02:21:39;53.05;;;21.67;;
48835;SDS011;62581;47.342;7.908;2023-12-04T02:24:07;53.15;;;20.30;;
48835;SDS011;62581;47.342;7.908;2023-12-04T02:29:07;40.25;;;17.70;;
48835;SDS011;62581;47.342;7.908;2023-12-04T02:31:40;43.92;;;19.08;;
48835;SDS011;62581;47.342;7.908;2023-12-04T02:34:08;44.05;;;18.17;;
48835;SDS011;62581;47.342;7.908;2023-12-04T02:36:37;41.47;;;18.33;;
48835;SDS011;62581;47.342;7.908;2023-12-04T02:39:05;38.80;;;17.13;;
48835;SDS011;62581;47.342;7.908;2023-12-04T02:41:33;43.03;;;18.25;;
48835;SDS011;62581;47.342;7.908;2023-12-04T02:46:27;44.40;;;18.38;;
48835;SDS011;62581;47.342;7.908;2023-12-04T02:48:54;40.53;;;17.38;;
48835;SDS011;62581;47.342;7.908;2023-12-04T02:51:21;35.25;;;16.98;;
48835;SDS011;62581;47.342;7.908;2023-12-04T02:53:47;39.15;;;17.20;;
48835;SDS011;62581;47.342;7.908;2023-12-04T02:56:14;40.92;;;17.40;;
48835;SDS011;62581;47.342;7.908;2023-12-04T02:58:43;40.55;;;17.45;;
48835;SDS011;62581;47.342;7.908;2023-12-04T03:01:10;36.80;;;17.23;;
48835;SDS011;62581;47.342;7.908;2023-12-04T03:03:36;36.70;;;17.17;;
48835;SDS011;62581;47.342;7.908;2023-12-04T03:06:04;38.10;;;17.70;;
48835;SDS011;62581;47.342;7.908;2023-12-04T03:08:31;42.92;;;17.85;;
48835;SDS011;62581;47.342;7.908;2023-12-04T03:10:58;38.47;;;17.63;;
48835;SDS011;62581;47.342;7.908;2023-12-04T03:15:55;42.40;;;16.75;;
48835;SDS011;62581;47.342;7.908;2023-12-04T03:18:22;41.35;;;17.30;;
48835;SDS011;62581;47.342;7.908;2023-12-04T03:20:50;41.80;;;18.02;;
48835;SDS011;62581;47.342;7.908;2023-12-04T03:23:17;43.10;;;17.70;;
48835;SDS011;62581;47.342;7.908;2023-12-04T03:25:44;48.65;;;17.30;;
48835;SDS011;62581;47.342;7.908;2023-12-04T03:28:11;42.33;;;17.38;;
48835;SDS011;62581;47.342;7.908;2023-12-04T03:30:40;39.70;;;18.10;;
48835;SDS011;62581;47.342;7.908;2023-12-04T03:33:10;46.38;;;17.63;;
48835;SDS011;62581;47.342;7.908;2023-12-04T03:35:37;44.85;;;17.45;;
48835;SDS011;62581;47.342;7.908;2023-12-04T03:38:04;44.78;;;18.70;;
48835;SDS011;62581;47.342;7.908;2023-12-04T03:40:31;49.17;;;19.42;;
48835;SDS011;62581;47.342;7.908;2023-12-04T03:42:58;48.15;;;19.05;;
48835;SDS011;62581;47.342;7.908;2023-12-04T03:45:25;50.60;;;19.10;;
48835;SDS011;62581;47.342;7.908;2023-12-04T03:47:52;49.08;;;19.38;;
48835;SDS011;62581;47.342;7.908;2023-12-04T03:50:20;49.30;;;18.02;;
48835;SDS011;62581;47.342;7.908;2023-12-04T03:52:48;52.33;;;18.13;;
48835;SDS011;62581;47.342;7.908;2023-12-04T03:55:15;48.05;;;19.15;;
48835;SDS011;62581;47.342;7.908;2023-12-04T03:57:44;53.22;;;19.38;;
48835;SDS011;62581;47.342;7.908;2023-12-04T04:00:11;45.17;;;17.70;;
48835;SDS011;62581;47.342;7.908;2023-12-04T04:02:39;54.90;;;19.30;;
48835;SDS011;62581;47.342;7.908;2023-12-04T04:05:06;52.20;;;18.40;;
48835;SDS011;62581;47.342;7.908;2023-12-04T04:07:35;45.67;;;18.05;;
48835;SDS011;62581;47.342;7.908;2023-12-04T04:12:29;40.65;;;16.55;;
48835;SDS011;62581;47.342;7.908;2023-12-04T04:14:57;43.53;;;16.70;;
48835;SDS011;62581;47.342;7.908;2023-12-04T04:17:24;42.47;;;15.70;;
48835;SDS011;62581;47.342;7.908;2023-12-04T04:19:51;40.22;;;17.42;;
48835;SDS011;62581;47.342;7.908;2023-12-04T04:22:18;42.10;;;16.75;;
48835;SDS011;62581;47.342;7.908;2023-12-04T04:24:46;35.22;;;14.75;;
48835;SDS011;62581;47.342;7.908;2023-12-04T04:27:13;42.45;;;16.90;;
48835;SDS011;62581;47.342;7.908;2023-12-04T04:29:41;35.67;;;15.52;;
48835;SDS011;62581;47.342;7.908;2023-12-04T04:32:08;41.67;;;16.17;;
48835;SDS011;62581;47.342;7.908;2023-12-04T04:34:35;41.38;;;15.93;;
48835;SDS011;62581;47.342;7.908;2023-12-04T04:37:02;39.85;;;16.00;;
48835;SDS011;62581;47.342;7.908;2023-12-04T04:39:29;34.28;;;15.27;;
48835;SDS011;62581;47.342;7.908;2023-12-04T04:41:57;40.17;;;15.57;;
48835;SDS011;62581;47.342;7.908;2023-12-04T04:44:24;36.13;;;16.50;;
48835;SDS011;62581;47.342;7.908;2023-12-04T04:46:51;34.75;;;15.45;;
48835;SDS011;62581;47.342;7.908;2023-12-04T04:49:18;38.03;;;16.50;;
48835;SDS011;62581;47.342;7.908;2023-12-04T04:51:45;41.42;;;15.98;;
48835;SDS011;62581;47.342;7.908;2023-12-04T04:54:12;33.65;;;14.10;;
48835;SDS011;62581;47.342;7.908;2023-12-04T04:56:39;36.88;;;15.00;;
48835;SDS011;62581;47.342;7.908;2023-12-04T04:59:07;35.13;;;14.90;;
48835;SDS011;62581;47.342;7.908;2023-12-04T05:01:34;33.42;;;14.90;;
48835;SDS011;62581;47.342;7.908;2023-12-04T05:04:01;35.63;;;15.50;;
48835;SDS011;62581;47.342;7.908;2023-12-04T05:06:28;39.83;;;14.35;;
48835;SDS011;62581;47.342;7.908;2023-12-04T05:08:56;37.58;;;15.77;;
48835;SDS011;62581;47.342;7.908;2023-12-04T05:11:23;43.20;;;16.07;;
48835;SDS011;62581;47.342;7.908;2023-12-04T05:13:50;39.95;;;15.23;;
48835;SDS011;62581;47.342;7.908;2023-12-04T05:16:19;44.50;;;16.15;;
48835;SDS011;62581;47.342;7.908;2023-12-04T05:18:46;33.45;;;15.00;;
48835;SDS011;62581;47.342;7.908;2023-12-04T05:21:13;41.30;;;15.77;;
48835;SDS011;62581;47.342;7.908;2023-12-04T05:23:40;29.95;;;13.82;;
48835;SDS011;62581;47.342;7.908;2023-12-04T05:26:07;39.25;;;15.05;;
48835;SDS011;62581;47.342;7.908;2023-12-04T05:28:34;41.15;;;16.17;;
48835;SDS011;62581;47.342;7.908;2023-12-04T05:31:01;39.58;;;15.70;;
48835;SDS011;62581;47.342;7.908;2023-12-04T05:33:30;41.78;;;15.55;;
48835;SDS011;62581;47.342;7.908;2023-12-04T05:35:56;40.08;;;15.98;;
48835;SDS011;62581;47.342;7.908;2023-12-04T05:38:23;41.45;;;15.02;;
48835;SDS011;62581;47.342;7.908;2023-12-04T05:40:50;37.03;;;15.10;;
48835;SDS011;62581;47.342;7.908;2023-12-04T05:43:19;45.92;;;16.05;;
48835;SDS011;62581;47.342;7.908;2023-12-04T05:45:46;43.03;;;16.15;;
48835;SDS011;62581;47.342;7.908;2023-12-04T05:48:13;46.05;;;16.63;;
48835;SDS011;62581;47.342;7.908;2023-12-04T05:50:41;42.00;;;16.75;;
48835;SDS011;62581;47.342;7.908;2023-12-04T05:53:08;39.92;;;14.90;;
48835;SDS011;62581;47.342;7.908;2023-12-04T05:55:35;51.55;;;17.13;;
48835;SDS011;62581;47.342;7.908;2023-12-04T05:58:02;46.35;;;16.73;;
48835;SDS011;62581;47.342;7.908;2023-12-04T06:00:29;39.60;;;16.48;;
48835;SDS011;62581;47.342;7.908;2023-12-04T06:02:56;38.67;;;16.45;;
48835;SDS011;62581;47.342;7.908;2023-12-04T06:05:23;39.80;;;15.25;;
48835;SDS011;62581;47.342;7.908;2023-12-04T06:07:52;43.15;;;16.73;;
48835;SDS011;62581;47.342;7.908;2023-12-04T06:10:19;45.05;;;16.17;;
48835;SDS011;62581;47.342;7.908;2023-12-04T06:12:45;46.78;;;17.30;;
48835;SDS011;62581;47.342;7.908;2023-12-04T06:15:12;39.92;;;17.10;;
48835;SDS011;62581;47.342;7.908;2023-12-04T06:17:40;44.00;;;17.20;;
48835;SDS011;62581;47.342;7.908;2023-12-04T06:20:07;44.63;;;15.70;;
48835;SDS011;62581;47.342;7.908;2023-12-04T06:22:36;42.97;;;17.23;;
48835;SDS011;62581;47.342;7.908;2023-12-04T06:25:06;41.47;;;16.33;;
48835;SDS011;62581;47.342;7.908;2023-12-04T06:27:34;45.47;;;16.83;;
48835;SDS011;62581;47.342;7.908;2023-12-04T06:30:01;43.67;;;14.88;;
48835;SDS011;62581;47.342;7.908;2023-12-04T06:32:29;40.63;;;15.85;;
48835;SDS011;62581;47.342;7.908;2023-12-04T06:34:57;36.75;;;15.75;;
48835;SDS011;62581;47.342;7.908;2023-12-04T06:37:24;41.57;;;16.17;;
48835;SDS011;62581;47.342;7.908;2023-12-04T06:39:52;44.00;;;16.90;;
48835;SDS011;62581;47.342;7.908;2023-12-04T06:42:21;39.40;;;15.90;;
48835;SDS011;62581;47.342;7.908;2023-12-04T06:44:49;35.80;;;15.68;;
48835;SDS011;62581;47.342;7.908;2023-12-04T06:47:16;35.92;;;15.45;;
48835;SDS011;62581;47.342;7.908;2023-12-04T06:49:47;34.97;;;15.35;;
48835;SDS011;62581;47.342;7.908;2023-12-04T06:52:14;38.00;;;15.52;;
48835;SDS011;62581;47.342;7.908;2023-12-04T06:54:41;37.25;;;15.38;;
48835;SDS011;62581;47.342;7.908;2023-12-04T06:57:08;33.35;;;15.90;;
48835;SDS011;62581;47.342;7.908;2023-12-04T06:59:37;43.65;;;17.17;;
48835;SDS011;62581;47.342;7.908;2023-12-04T07:02:04;41.10;;;16.30;;
48835;SDS011;62581;47.342;7.908;2023-12-04T07:04:31;41.00;;;17.08;;
48835;SDS011;62581;47.342;7.908;2023-12-04T07:06:58;38.47;;;16.00;;
48835;SDS011;62581;47.342;7.908;2023-12-04T07:09:30;39.83;;;16.10;;
48835;SDS011;62581;47.342;7.908;2023-12-04T07:11:57;45.85;;;18.50;;
48835;SDS011;62581;47.342;7.908;2023-12-04T07:14:24;56.92;;;23.23;;
48835;SDS011;62581;47.342;7.908;2023-12-04T07:16:52;59.80;;;22.58;;
48835;SDS011;62581;47.342;7.908;2023-12-04T07:19:19;62.67;;;24.35;;
48835;SDS011;62581;47.342;7.908;2023-12-04T07:21:47;58.13;;;22.17;;
48835;SDS011;62581;47.342;7.908;2023-12-04T07:24:15;59.70;;;22.70;;
48835;SDS011;62581;47.342;7.908;2023-12-04T07:26:43;61.97;;;22.98;;
48835;SDS011;62581;47.342;7.908;2023-12-04T07:29:10;57.35;;;22.52;;
48835;SDS011;62581;47.342;7.908;2023-12-04T07:31:37;56.28;;;22.83;;
48835;SDS011;62581;47.342;7.908;2023-12-04T07:34:06;44.20;;;18.77;;
48835;SDS011;62581;47.342;7.908;2023-12-04T07:36:33;44.05;;;17.95;;
48835;SDS011;62581;47.342;7.908;2023-12-04T07:39:00;46.35;;;19.13;;
48835;SDS011;62581;47.342;7.908;2023-12-04T07:41:29;55.00;;;20.80;;
48835;SDS011;62581;47.342;7.908;2023-12-04T07:43:56;47.45;;;20.15;;
48835;SDS011;62581;47.342;7.908;2023-12-04T07:46:24;50.23;;;18.90;;
48835;SDS011;62581;47.342;7.908;2023-12-04T07:48:51;46.88;;;18.15;;
48835;SDS011;62581;47.342;7.908;2023-12-04T07:51:19;40.92;;;17.55;;
48835;SDS011;62581;47.342;7.908;2023-12-04T07:56:13;47.50;;;18.98;;
48835;SDS011;62581;47.342;7.908;2023-12-04T07:58:41;38.28;;;17.23;;
48835;SDS011;62581;47.342;7.908;2023-12-04T08:01:08;43.08;;;18.77;;
48835;SDS011;62581;47.342;7.908;2023-12-04T08:03:41;46.67;;;18.77;;
48835;SDS011;62581;47.342;7.908;2023-12-04T08:06:08;50.53;;;21.10;;
48835;SDS011;62581;47.342;7.908;2023-12-04T08:08:37;57.35;;;23.08;;
48835;SDS011;62581;47.342;7.908;2023-12-04T08:11:04;61.70;;;22.45;;
48835;SDS011;62581;47.342;7.908;2023-12-04T08:13:31;56.20;;;22.67;;
48835;SDS011;62581;47.342;7.908;2023-12-04T08:15:58;58.78;;;23.17;;
48835;SDS011;62581;47.342;7.908;2023-12-04T08:18:25;55.60;;;22.75;;
48835;SDS011;62581;47.342;7.908;2023-12-04T08:20:52;57.90;;;22.60;;
48835;SDS011;62581;47.342;7.908;2023-12-04T08:23:19;59.90;;;22.63;;
48835;SDS011;62581;47.342;7.908;2023-12-04T08:25:48;53.72;;;21.45;;
48835;SDS011;62581;47.342;7.908;2023-12-04T08:28:15;55.88;;;22.42;;
48835;SDS011;62581;47.342;7.908;2023-12-04T08:30:42;56.40;;;21.35;;
48835;SDS011;62581;47.342;7.908;2023-12-04T08:33:09;51.78;;;20.38;;
48835;SDS011;62581;47.342;7.908;2023-12-04T08:35:36;53.80;;;21.00;;
48835;SDS011;62581;47.342;7.908;2023-12-04T08:38:03;58.38;;;23.38;;
48835;SDS011;62581;47.342;7.908;2023-12-04T08:40:30;48.35;;;20.90;;
48835;SDS011;62581;47.342;7.908;2023-12-04T08:42:58;49.80;;;20.95;;
48835;SDS011;62581;47.342;7.908;2023-12-04T08:45:25;43.33;;;19.88;;
48835;SDS011;62581;47.342;7.908;2023-12-04T08:47:52;44.67;;;20.05;;
48835;SDS011;62581;47.342;7.908;2023-12-04T08:50:19;42.28;;;17.42;;
48835;SDS011;62581;47.342;7.908;2023-12-04T08:52:46;37.42;;;17.75;;
48835;SDS011;62581;47.342;7.908;2023-12-04T08:55:13;37.08;;;16.50;;
48835;SDS011;62581;47.342;7.908;2023-12-04T08:57:40;38.42;;;17.60;;
48835;SDS011;62581;47.342;7.908;2023-12-04T09:00:09;39.70;;;17.38;;
48835;SDS011;62581;47.342;7.908;2023-12-04T09:02:37;33.47;;;15.63;;
48835;SDS011;62581;47.342;7.908;2023-12-04T09:05:04;34.88;;;16.70;;
48835;SDS011;62581;47.342;7.908;2023-12-04T09:07:31;27.63;;;14.93;;
48835;SDS011;62581;47.342;7.908;2023-12-04T09:09:59;35.53;;;16.02;;
48835;SDS011;62581;47.342;7.908;2023-12-04T09:12:26;30.00;;;14.63;;
48835;SDS011;62581;47.342;7.908;2023-12-04T09:14:53;30.27;;;15.13;;
48835;SDS011;62581;47.342;7.908;2023-12-04T09:17:21;36.65;;;15.68;;
48835;SDS011;62581;47.342;7.908;2023-12-04T09:19:48;33.60;;;15.75;;
48835;SDS011;62581;47.342;7.908;2023-12-04T09:22:15;31.67;;;15.38;;
48835;SDS011;62581;47.342;7.908;2023-12-04T09:24:45;37.50;;;16.58;;
48835;SDS011;62581;47.342;7.908;2023-12-04T09:27:12;33.13;;;16.90;;
48835;SDS011;62581;47.342;7.908;2023-12-04T09:29:40;35.65;;;17.52;;
48835;SDS011;62581;47.342;7.908;2023-12-04T09:32:07;42.37;;;18.10;;
48835;SDS011;62581;47.342;7.908;2023-12-04T09:34:36;37.67;;;16.98;;
48835;SDS011;62581;47.342;7.908;2023-12-04T09:37:03;33.30;;;16.27;;
48835;SDS011;62581;47.342;7.908;2023-12-04T09:39:30;31.63;;;15.57;;
48835;SDS011;62581;47.342;7.908;2023-12-04T09:41:57;32.55;;;15.35;;
48835;SDS011;62581;47.342;7.908;2023-12-04T09:44:26;34.10;;;15.07;;
48835;SDS011;62581;47.342;7.908;2023-12-04T09:46:56;29.58;;;15.10;;
48835;SDS011;62581;47.342;7.908;2023-12-04T09:49:23;27.85;;;14.93;;
48835;SDS011;62581;47.342;7.908;2023-12-04T09:51:53;31.90;;;15.18;;
48835;SDS011;62581;47.342;7.908;2023-12-04T09:54:20;36.28;;;16.42;;
48835;SDS011;62581;47.342;7.908;2023-12-04T09:56:47;29.10;;;15.23;;
48835;SDS011;62581;47.342;7.908;2023-12-04T09:59:16;37.35;;;16.30;;
48835;SDS011;62581;47.342;7.908;2023-12-04T10:01:44;33.70;;;15.30;;
48835;SDS011;62581;47.342;7.908;2023-12-04T10:04:13;33.05;;;16.17;;
48835;SDS011;62581;47.342;7.908;2023-12-04T10:06:40;29.08;;;15.23;;
48835;SDS011;62581;47.342;7.908;2023-12-04T10:11:41;32.88;;;14.50;;
48835;SDS011;62581;47.342;7.908;2023-12-04T10:14:14;37.15;;;17.48;;
48835;SDS011;62581;47.342;7.908;2023-12-04T10:16:42;33.50;;;16.50;;
48835;SDS011;62581;47.342;7.908;2023-12-04T10:19:16;33.03;;;16.48;;
48835;SDS011;62581;47.342;7.908;2023-12-04T10:21:45;36.00;;;15.85;;
48835;SDS011;62581;47.342;7.908;2023-12-04T10:24:26;35.58;;;16.95;;
48835;SDS011;62581;47.342;7.908;2023-12-04T10:26:55;36.55;;;17.02;;
48835;SDS011;62581;47.342;7.908;2023-12-04T10:29:23;37.42;;;17.50;;
48835;SDS011;62581;47.342;7.908;2023-12-04T10:31:50;35.70;;;17.20;;
48835;SDS011;62581;47.342;7.908;2023-12-04T10:34:20;41.60;;;18.67;;
48835;SDS011;62581;47.342;7.908;2023-12-04T10:36:51;37.50;;;17.42;;
48835;SDS011;62581;47.342;7.908;2023-12-04T10:39:19;36.30;;;16.70;;
48835;SDS011;62581;47.342;7.908;2023-12-04T10:41:50;40.67;;;18.60;;
48835;SDS011;62581;47.342;7.908;2023-12-04T10:44:26;42.35;;;18.95;;
48835;SDS011;62581;47.342;7.908;2023-12-04T10:46:55;36.78;;;18.27;;
48835;SDS011;62581;47.342;7.908;2023-12-04T10:49:25;35.40;;;17.50;;
48835;SDS011;62581;47.342;7.908;2023-12-04T10:51:55;38.50;;;18.65;;
48835;SDS011;62581;47.342;7.908;2023-12-04T10:54:25;36.50;;;17.50;;
48835;SDS011;62581;47.342;7.908;2023-12-04T10:56:53;39.25;;;18.50;;
48835;SDS011;62581;47.342;7.908;2023-12-04T10:59:27;42.80;;;19.65;;
48835;SDS011;62581;47.342;7.908;2023-12-04T11:01:58;51.38;;;19.92;;
48835;SDS011;62581;47.342;7.908;2023-12-04T11:04:28;41.17;;;19.40;;
48835;SDS011;62581;47.342;7.908;2023-12-04T11:06:58;42.92;;;19.15;;
48835;SDS011;62581;47.342;7.908;2023-12-04T11:09:30;41.00;;;18.65;;
48835;SDS011;62581;47.342;7.908;2023-12-04T11:12:02;42.85;;;19.25;;
48835;SDS011;62581;47.342;7.908;2023-12-04T11:14:34;40.40;;;18.45;;
48835;SDS011;62581;47.342;7.908;2023-12-04T11:17:08;39.67;;;17.98;;
48835;SDS011;62581;47.342;7.908;2023-12-04T11:19:43;41.05;;;18.75;;
48835;SDS011;62581;47.342;7.908;2023-12-04T11:22:16;40.97;;;18.30;;
48835;SDS011;62581;47.342;7.908;2023-12-04T11:24:46;42.03;;;19.30;;
48835;SDS011;62581;47.342;7.908;2023-12-04T11:27:14;39.33;;;18.77;;
48835;SDS011;62581;47.342;7.908;2023-12-04T11:29:42;35.92;;;17.63;;
48835;SDS011;62581;47.342;7.908;2023-12-04T11:32:12;42.55;;;20.30;;
48835;SDS011;62581;47.342;7.908;2023-12-04T11:34:46;42.25;;;20.63;;
48835;SDS011;62581;47.342;7.908;2023-12-04T11:37:14;38.67;;;18.13;;
48835;SDS011;62581;47.342;7.908;2023-12-04T11:39:41;40.65;;;19.65;;
48835;SDS011;62581;47.342;7.908;2023-12-04T11:42:10;41.40;;;19.30;;
48835;SDS011;62581;47.342;7.908;2023-12-04T11:44:37;40.67;;;19.13;;
48835;SDS011;62581;47.342;7.908;2023-12-04T11:47:08;40.58;;;18.08;;
48835;SDS011;62581;47.342;7.908;2023-12-04T11:49:35;41.33;;;19.40;;
48835;SDS011;62581;47.342;7.908;2023-12-04T11:52:03;38.15;;;19.58;;
48835;SDS011;62581;47.342;7.908;2023-12-04T11:57:26;41.00;;;18.27;;
48835;SDS011;62581;47.342;7.908;2023-12-04T12:00:04;38.28;;;18.00;;
48835;SDS011;62581;47.342;7.908;2023-12-04T12:02:39;41.20;;;18.00;;
48835;SDS011;62581;47.342;7.908;2023-12-04T12:05:12;39.85;;;19.45;;
48835;SDS011;62581;47.342;7.908;2023-12-04T12:07:39;37.85;;;18.10;;
48835;SDS011;62581;47.342;7.908;2023-12-04T12:10:07;40.00;;;17.98;;
48835;SDS011;62581;47.342;7.908;2023-12-04T12:12:36;44.97;;;18.83;;
48835;SDS011;62581;47.342;7.908;2023-12-04T12:15:05;44.00;;;20.05;;
48835;SDS011;62581;47.342;7.908;2023-12-04T12:17:35;44.63;;;19.70;;
48835;SDS011;62581;47.342;7.908;2023-12-04T12:22:32;43.88;;;19.73;;
48835;SDS011;62581;47.342;7.908;2023-12-04T12:24:59;38.95;;;19.20;;
48835;SDS011;62581;47.342;7.908;2023-12-04T12:27:26;36.40;;;17.63;;
48835;SDS011;62581;47.342;7.908;2023-12-04T12:29:57;41.75;;;19.92;;
48835;SDS011;62581;47.342;7.908;2023-12-04T12:32:25;48.35;;;21.80;;
48835;SDS011;62581;47.342;7.908;2023-12-04T12:34:53;44.78;;;22.42;;
48835;SDS011;62581;47.342;7.908;2023-12-04T12:37:20;44.67;;;20.40;;
48835;SDS011;62581;47.342;7.908;2023-12-04T12:39:47;45.72;;;21.38;;
48835;SDS011;62581;47.342;7.908;2023-12-04T12:42:20;47.17;;;21.20;;
48835;SDS011;62581;47.342;7.908;2023-12-04T12:44:47;48.22;;;21.48;;
48835;SDS011;62581;47.342;7.908;2023-12-04T12:47:16;46.35;;;21.92;;
48835;SDS011;62581;47.342;7.908;2023-12-04T12:49:43;46.40;;;22.60;;
48835;SDS011;62581;47.342;7.908;2023-12-04T12:52:10;48.42;;;20.77;;
48835;SDS011;62581;47.342;7.908;2023-12-04T12:54:38;46.88;;;21.60;;
48835;SDS011;62581;47.342;7.908;2023-12-04T12:57:06;32.20;;;15.18;;
48835;SDS011;62581;47.342;7.908;2023-12-04T12:59:33;30.52;;;15.60;;
48835;SDS011;62581;47.342;7.908;2023-12-04T13:02:00;28.27;;;15.13;;
48835;SDS011;62581;47.342;7.908;2023-12-04T13:04:34;31.25;;;16.35;;
48835;SDS011;62581;47.342;7.908;2023-12-04T13:07:02;30.17;;;16.42;;
48835;SDS011;62581;47.342;7.908;2023-12-04T13:09:31;29.88;;;14.98;;
48835;SDS011;62581;47.342;7.908;2023-12-04T13:11:57;29.30;;;15.93;;
48835;SDS011;62581;47.342;7.908;2023-12-04T13:14:25;29.75;;;15.85;;
48835;SDS011;62581;47.342;7.908;2023-12-04T13:16:52;32.08;;;16.05;;
48835;SDS011;62581;47.342;7.908;2023-12-04T13:19:21;29.20;;;15.20;;
48835;SDS011;62581;47.342;7.908;2023-12-04T13:21:49;31.80;;;16.50;;
48835;SDS011;62581;47.342;7.908;2023-12-04T13:24:16;38.17;;;18.42;;
48835;SDS011;62581;47.342;7.908;2023-12-04T13:26:43;42.47;;;19.27;;
48835;SDS011;62581;47.342;7.908;2023-12-04T13:29:12;40.60;;;20.50;;
48835;SDS011;62581;47.342;7.908;2023-12-04T13:31:42;37.08;;;18.98;;
48835;SDS011;62581;47.342;7.908;2023-12-04T13:34:11;39.38;;;18.02;;
48835;SDS011;62581;47.342;7.908;2023-12-04T13:36:38;41.58;;;19.00;;
48835;SDS011;62581;47.342;7.908;2023-12-04T13:39:07;37.85;;;19.08;;
48835;SDS011;62581;47.342;7.908;2023-12-04T13:41:41;42.95;;;19.52;;
48835;SDS011;62581;47.342;7.908;2023-12-04T13:44:26;40.63;;;18.10;;
48835;SDS011;62581;47.342;7.908;2023-12-04T13:46:54;39.72;;;19.33;;
48835;SDS011;62581;47.342;7.908;2023-12-04T13:49:21;37.65;;;18.27;;
48835;SDS011;62581;47.342;7.908;2023-12-04T13:51:48;38.90;;;18.52;;
48835;SDS011;62581;47.342;7.908;2023-12-04T13:54:16;37.67;;;18.98;;
48835;SDS011;62581;47.342;7.908;2023-12-04T13:56:46;38.33;;;19.33;;
48835;SDS011;62581;47.342;7.908;2023-12-04T13:59:19;36.47;;;17.95;;
48835;SDS011;62581;47.342;7.908;2023-12-04T14:01:47;37.40;;;18.67;;
48835;SDS011;62581;47.342;7.908;2023-12-04T14:04:16;42.72;;;19.67;;
48835;SDS011;62581;47.342;7.908;2023-12-04T14:06:43;34.00;;;17.52;;
48835;SDS011;62581;47.342;7.908;2023-12-04T14:09:11;37.83;;;18.48;;
48835;SDS011;62581;47.342;7.908;2023-12-04T14:14:10;36.65;;;18.52;;
48835;SDS011;62581;47.342;7.908;2023-12-04T14:16:38;44.83;;;20.98;;
48835;SDS011;62581;47.342;7.908;2023-12-04T14:19:06;39.90;;;20.33;;
48835;SDS011;62581;47.342;7.908;2023-12-04T14:21:33;39.33;;;20.50;;
48835;SDS011;62581;47.342;7.908;2023-12-04T14:24:00;40.65;;;20.70;;
48835;SDS011;62581;47.342;7.908;2023-12-04T14:26:27;43.92;;;21.35;;
48835;SDS011;62581;47.342;7.908;2023-12-04T14:28:57;39.50;;;20.15;;
48835;SDS011;62581;47.342;7.908;2023-12-04T14:31:26;43.08;;;20.90;;
48835;SDS011;62581;47.342;7.908;2023-12-04T14:33:53;34.42;;;18.80;;
48835;SDS011;62581;47.342;7.908;2023-12-04T14:36:20;31.50;;;15.55;;
48835;SDS011;62581;47.342;7.908;2023-12-04T14:38:48;31.23;;;16.63;;
48835;SDS011;62581;47.342;7.908;2023-12-04T14:41:15;28.50;;;15.50;;
48835;SDS011;62581;47.342;7.908;2023-12-04T14:43:42;29.80;;;15.93;;
48835;SDS011;62581;47.342;7.908;2023-12-04T14:46:10;30.83;;;16.05;;
48835;SDS011;62581;47.342;7.908;2023-12-04T14:48:38;28.88;;;16.13;;
48835;SDS011;62581;47.342;7.908;2023-12-04T14:51:06;31.55;;;16.25;;